Time;durP1;ratioP1;P1;durP2;ratioP2;P2;SDS_P1;SDS_P2;PMS_P1;PMS_P2;Temp;Humidity;BMP_temperature;BMP_pressure;BME280_temperature;BME280_humidity;BME280_pressure;Samples;Min_cycle;Max_cycle;Signal;HPM_P1;HPM_P2
2023/05/23 00:01:13;;;;;;;7.18;2.60;;;;;;;;;;4965601;28;20051;-65
2023/05/23 00:03:46;;;;;;;6.18;2.33;;;;;;;;;;4953277;28;20510;-64
2023/05/23 00:06:20;;;;;;;7.47;2.58;;;;;;;;;;4932841;28;20047;-66
2023/05/23 00:08:53;;;;;;;6.03;2.63;;;;;;;;;;4955909;28;20042;-63
2023/05/23 00:11:27;;;;;;;8.52;2.67;;;;;;;;;;4922933;29;20503;-64
2023/05/23 00:13:59;;;;;;;9.70;3.00;;;;;;;;;;4890504;29;20416;-65
2023/05/23 00:16:31;;;;;;;5.82;2.92;;;;;;;;;;4922177;29;20048;-64
2023/05/23 00:19:04;;;;;;;5.70;2.40;;;;;;;;;;4874975;29;20484;-64
2023/05/23 00:21:34;;;;;;;6.72;2.15;;;;;;;;;;4920556;29;20044;-65
2023/05/23 00:24:06;;;;;;;5.72;2.40;;;;;;;;;;4921660;29;20438;-64
2023/05/23 00:26:37;;;;;;;6.10;2.63;;;;;;;;;;4912694;29;20063;-63
2023/05/23 00:29:14;;;;;;;7.15;2.47;;;;;;;;;;4927944;29;20067;-63
2023/05/23 00:31:46;;;;;;;7.30;2.90;;;;;;;;;;4941551;29;20063;-64
2023/05/23 00:34:19;;;;;;;5.28;2.85;;;;;;;;;;4900134;29;20159;-63
2023/05/23 00:36:50;;;;;;;7.88;2.70;;;;;;;;;;4931274;29;20059;-64
2023/05/23 00:39:21;;;;;;;11.05;2.72;;;;;;;;;;4881472;29;20142;-64
2023/05/23 00:41:51;;;;;;;5.88;2.70;;;;;;;;;;4909415;29;20424;-63
2023/05/23 00:44:22;;;;;;;5.95;2.97;;;;;;;;;;4957697;28;20522;-64
2023/05/23 00:46:56;;;;;;;6.20;2.42;;;;;;;;;;4950431;29;20054;-63
2023/05/23 00:49:27;;;;;;;6.60;2.80;;;;;;;;;;4950428;29;20519;-64
2023/05/23 00:51:59;;;;;;;6.10;2.47;;;;;;;;;;4918675;29;20435;-66
2023/05/23 00:54:31;;;;;;;;;;;;;;;;;;4925384;29;20052;-64
2023/05/23 00:57:02;;;;;;;5.90;2.50;;;;;;;;;;4923510;29;20302;-64
2023/05/23 00:59:35;;;;;;;7.57;3.25;;;;;;;;;;4911962;29;20056;-64
2023/05/23 01:02:07;;;;;;;7.70;2.67;;;;;;;;;;4880736;29;20530;-65
2023/05/23 01:04:40;;;;;;;9.77;2.30;;;;;;;;;;4911997;29;20421;-64
2023/05/23 01:07:12;;;;;;;5.80;2.65;;;;;;;;;;4912125;29;20067;-65
2023/05/23 01:09:43;;;;;;;6.18;2.92;;;;;;;;;;4892769;29;20381;-65
2023/05/23 01:12:52;;;;;;;7.55;2.75;;;;;;;;;;4848132;29;20060;-65
2023/05/23 01:15:51;;;;;;;7.22;3.03;;;;;;;;;;4827605;29;20552;-65
2023/05/23 01:19:07;;;;;;;4.93;2.80;;;;;;;;;;4810364;29;20053;-62
2023/05/23 01:21:40;;;;;;;8.02;3.17;;;;;;;;;;4808470;29;20058;-64
2023/05/23 01:24:25;;;;;;;6.28;3.22;;;;;;;;;;4822312;29;20096;-64
2023/05/23 01:27:23;;;;;;;8.82;3.40;;;;;;;;;;4777752;29;20054;-65
2023/05/23 01:29:57;;;;;;;8.30;2.88;;;;;;;;;;4785964;29;20055;-64
2023/05/23 01:32:30;;;;;;;8.20;2.97;;;;;;;;;;4812658;29;20065;-64
2023/05/23 01:35:00;;;;;;;6.43;2.80;;;;;;;;;;4834761;29;20058;-65
2023/05/23 01:37:31;;;;;;;6.60;2.90;;;;;;;;;;4789251;29;20539;-63
2023/05/23 01:40:01;;;;;;;5.68;2.90;;;;;;;;;;4833844;29;20201;-63
2023/05/23 01:42:32;;;;;;;7.85;3.30;;;;;;;;;;4804188;29;20070;-64
2023/05/23 01:45:03;;;;;;;8.77;3.03;;;;;;;;;;4818396;29;20210;-64
2023/05/23 01:47:35;;;;;;;7.40;3.60;;;;;;;;;;4806887;29;20550;-66
2023/05/23 01:50:07;;;;;;;9.77;2.78;;;;;;;;;;4822078;29;20054;-65
2023/05/23 01:52:38;;;;;;;11.55;3.13;;;;;;;;;;4803923;29;20051;-65
2023/05/23 01:55:10;;;;;;;7.80;3.30;;;;;;;;;;4803835;29;20093;-63
2023/05/23 01:57:41;;;;;;;8.65;2.70;;;;;;;;;;4771331;29;20421;-66
2023/05/23 02:00:13;;;;;;;7.97;3.10;;;;;;;;;;4821875;29;20066;-63
2023/05/23 02:02:47;;;;;;;5.63;2.85;;;;;;;;;;4839949;29;20065;-64
2023/05/23 02:05:18;;;;;;;7.63;2.85;;;;;;;;;;4840262;29;20058;-63
2023/05/23 02:07:48;;;;;;;10.93;3.08;;;;;;;;;;4862274;29;20060;-63
2023/05/23 02:10:19;;;;;;;9.30;3.63;;;;;;;;;;4877001;29;20102;-64
2023/05/23 02:12:50;;;;;;;8.40;3.50;;;;;;;;;;4877354;29;20127;-63
2023/05/23 02:15:21;;;;;;;8.68;3.05;;;;;;;;;;4877289;29;20065;-63
2023/05/23 02:17:51;;;;;;;5.95;2.83;;;;;;;;;;4842774;29;20049;-64
2023/05/23 02:20:22;;;;;;;6.25;2.78;;;;;;;;;;4858527;29;20539;-65
2023/05/23 02:22:53;;;;;;;6.80;2.80;;;;;;;;;;4868873;29;20069;-64
2023/05/23 02:25:23;;;;;;;7.43;2.90;;;;;;;;;;4874217;29;20064;-65
2023/05/23 02:27:53;;;;;;;7.28;3.00;;;;;;;;;;4914359;29;20094;-64
2023/05/23 02:30:24;;;;;;;6.72;2.88;;;;;;;;;;4894285;29;20470;-63
2023/05/23 02:32:56;;;;;;;6.20;3.13;;;;;;;;;;4830342;29;20049;-64
2023/05/23 02:35:26;;;;;;;7.63;3.00;;;;;;;;;;4851640;29;20049;-64
2023/05/23 02:37:57;;;;;;;6.28;3.15;;;;;;;;;;4868279;29;20064;-63
2023/05/23 02:40:27;;;;;;;7.15;3.45;;;;;;;;;;4836554;29;20058;-65
2023/05/23 02:42:58;;;;;;;6.55;3.28;;;;;;;;;;4886133;29;20421;-64
2023/05/23 02:45:30;;;;;;;6.15;3.15;;;;;;;;;;4876313;29;20061;-64
2023/05/23 02:48:01;;;;;;;9.45;3.40;;;;;;;;;;4876478;29;20828;-63
2023/05/23 02:50:31;;;;;;;7.75;3.42;;;;;;;;;;4876307;29;20529;-65
2023/05/23 02:53:02;;;;;;;7.93;3.22;;;;;;;;;;4895106;29;20059;-64
2023/05/23 02:55:32;;;;;;;6.10;2.83;;;;;;;;;;4894910;29;20076;-63
2023/05/23 02:58:04;;;;;;;7.38;3.17;;;;;;;;;;4894845;29;20056;-63
2023/05/23 03:00:35;;;;;;;7.13;3.42;;;;;;;;;;4894976;29;20094;-63
2023/05/23 03:03:06;;;;;;;9.55;3.22;;;;;;;;;;4863643;29;20060;-64
2023/05/23 03:05:36;;;;;;;7.03;3.30;;;;;;;;;;4876037;29;20056;-64
2023/05/23 03:08:07;;;;;;;8.32;4.05;;;;;;;;;;4830448;29;20061;-64
2023/05/23 03:10:38;;;;;;;7.32;3.05;;;;;;;;;;4857071;29;20046;-64
2023/05/23 03:13:08;;;;;;;7.75;3.33;;;;;;;;;;4812081;29;20058;-63
2023/05/23 03:15:38;;;;;;;8.98;3.53;;;;;;;;;;4857113;29;20060;-63
2023/05/23 03:18:10;;;;;;;7.63;3.47;;;;;;;;;;4857521;29;20053;-64
2023/05/23 03:20:41;;;;;;;6.18;2.97;;;;;;;;;;4814281;29;20046;-63
2023/05/23 03:23:11;;;;;;;5.75;2.97;;;;;;;;;;4805459;29;20055;-64
2023/05/23 03:25:42;;;;;;;8.85;3.10;;;;;;;;;;4829615;29;20075;-64
2023/05/23 03:28:13;;;;;;;9.95;3.22;;;;;;;;;;4805376;29;20618;-66
2023/05/23 03:30:43;;;;;;;8.15;3.20;;;;;;;;;;4829825;29;20058;-64
2023/05/23 03:33:14;;;;;;;7.03;3.45;;;;;;;;;;4808377;29;20064;-64
2023/05/23 03:35:45;;;;;;;8.60;2.75;;;;;;;;;;4857460;29;20057;-63
2023/05/23 03:38:15;;;;;;;7.70;3.20;;;;;;;;;;4875403;29;20062;-64
2023/05/23 03:40:46;;;;;;;8.07;3.00;;;;;;;;;;4876044;29;20061;-63
2023/05/23 03:43:16;;;;;;;6.93;3.10;;;;;;;;;;4894243;29;20056;-63
2023/05/23 03:45:47;;;;;;;6.70;3.28;;;;;;;;;;4894348;29;20053;-63
2023/05/23 03:48:18;;;;;;;7.03;3.35;;;;;;;;;;4864043;29;20068;-63
2023/05/23 03:50:49;;;;;;;7.07;3.22;;;;;;;;;;4875244;29;20064;-63
2023/05/23 03:53:20;;;;;;;8.82;3.25;;;;;;;;;;4878372;29;20060;-65
2023/05/23 03:55:52;;;;;;;7.13;3.28;;;;;;;;;;4894351;29;20065;-64
2023/05/23 03:58:23;;;;;;;8.70;3.50;;;;;;;;;;4868837;29;20399;-63
2023/05/23 04:00:58;;;;;;;7.53;3.22;;;;;;;;;;4893544;29;20059;-70
2023/05/23 04:03:33;;;;;;;9.32;3.50;;;;;;;;;;4872078;29;20058;-63
2023/05/23 04:06:05;;;;;;;7.50;2.85;;;;;;;;;;4893646;29;20083;-64
2023/05/23 04:08:40;;;;;;;7.20;3.33;;;;;;;;;;4874463;29;20409;-65
2023/05/23 04:11:12;;;;;;;7.25;3.42;;;;;;;;;;4856367;29;20049;-63
2023/05/23 04:13:42;;;;;;;11.15;3.72;;;;;;;;;;4837699;29;20057;-65
2023/05/23 04:16:13;;;;;;;7.38;3.50;;;;;;;;;;4808293;29;20058;-64
2023/05/23 04:18:46;;;;;;;9.30;3.50;;;;;;;;;;4801331;29;20050;-63
2023/05/23 04:21:16;;;;;;;7.05;3.20;;;;;;;;;;4748363;30;20079;-64
2023/05/23 04:23:55;;;;;;;7.38;3.45;;;;;;;;;;4819637;29;20059;-64
2023/05/23 04:26:26;;;;;;;6.45;3.10;;;;;;;;;;4837463;29;20157;-63
2023/05/23 04:28:58;;;;;;;6.80;3.17;;;;;;;;;;4837990;29;20065;-63
2023/05/23 04:31:28;;;;;;;7.20;3.30;;;;;;;;;;4825569;29;20053;-65
2023/05/23 04:33:59;;;;;;;6.25;3.25;;;;;;;;;;4837643;29;20415;-64
2023/05/23 04:36:31;;;;;;;5.25;2.97;;;;;;;;;;4819215;29;20051;-66
2023/05/23 04:39:01;;;;;;;6.18;3.63;;;;;;;;;;4807563;29;20062;-64
2023/05/23 04:41:37;;;;;;;7.32;3.58;;;;;;;;;;4788823;29;20058;-66
2023/05/23 04:44:30;;;;;;;6.60;2.97;;;;;;;;;;4748275;30;20430;-63
2023/05/23 04:47:11;;;;;;;7.82;2.88;;;;;;;;;;4780735;29;20070;-64
2023/05/23 04:50:04;;;;;;;6.75;3.00;;;;;;;;;;4821050;29;20100;-63
2023/05/23 04:52:35;;;;;;;8.68;3.38;;;;;;;;;;4805278;29;20416;-63
2023/05/23 04:55:05;;;;;;;9.75;3.08;;;;;;;;;;4804622;29;20058;-64
2023/05/23 04:57:36;;;;;;;7.18;3.35;;;;;;;;;;4790092;29;20055;-66
2023/05/23 05:00:09;;;;;;;8.40;3.42;;;;;;;;;;4805037;29;20563;-64
2023/05/23 05:02:40;;;;;;;7.47;3.35;;;;;;;;;;4822992;29;20055;-64
2023/05/23 05:05:10;;;;;;;7.13;3.47;;;;;;;;;;4799153;29;20483;-64
2023/05/23 05:07:41;;;;;;;8.95;3.38;;;;;;;;;;4769001;30;20075;-63
2023/05/23 05:10:15;;;;;;;8.02;3.30;;;;;;;;;;4756676;30;20055;-63
2023/05/23 05:12:50;;;;;;;7.50;3.67;;;;;;;;;;4768727;30;20063;-64
2023/05/23 05:15:20;;;;;;;6.05;3.00;;;;;;;;;;4785363;30;20067;-63
2023/05/23 05:17:55;;;;;;;14.05;3.78;;;;;;;;;;4822324;29;20061;-63
2023/05/23 05:20:25;;;;;;;9.02;3.22;;;;;;;;;;4806857;29;20054;-63
2023/05/23 05:22:58;;;;;;;8.15;3.45;;;;;;;;;;4822281;29;20058;-63
2023/05/23 05:25:31;;;;;;;7.00;3.30;;;;;;;;;;4774415;29;20061;-63
2023/05/23 05:28:04;;;;;;;8.45;3.58;;;;;;;;;;4774754;29;20059;-65
2023/05/23 05:30:47;;;;;;;8.73;3.65;;;;;;;;;;4768396;30;20048;-63
2023/05/23 05:33:18;;;;;;;8.25;3.75;;;;;;;;;;4731308;30;20526;-63
2023/05/23 05:35:50;;;;;;;8.25;3.50;;;;;;;;;;4744408;30;20060;-63
2023/05/23 05:38:21;;;;;;;10.35;3.95;;;;;;;;;;4750286;30;20771;-63
2023/05/23 05:40:51;;;;;;;10.45;3.33;;;;;;;;;;4743255;30;20457;-63
2023/05/23 05:43:23;;;;;;;8.80;3.28;;;;;;;;;;4764570;30;20048;-63
2023/05/23 05:45:53;;;;;;;10.23;3.83;;;;;;;;;;4740544;30;20502;-63
2023/05/23 05:48:23;;;;;;;6.40;3.22;;;;;;;;;;4752275;30;20064;-64
2023/05/23 05:50:56;;;;;;;7.13;3.40;;;;;;;;;;4750316;30;20137;-63
2023/05/23 05:53:26;;;;;;;10.35;3.63;;;;;;;;;;4770965;30;20059;-65
2023/05/23 05:55:56;;;;;;;14.02;3.33;;;;;;;;;;4785773;30;20059;-64
2023/05/23 05:58:27;;;;;;;6.97;3.30;;;;;;;;;;4774536;30;20067;-63
2023/05/23 06:01:04;;;;;;;9.02;3.58;;;;;;;;;;4761303;30;20056;-65
2023/05/23 06:03:34;;;;;;;9.98;3.70;;;;;;;;;;4820917;29;20101;-63
2023/05/23 06:06:05;;;;;;;8.38;3.55;;;;;;;;;;4785275;30;20066;-65
2023/05/23 06:08:37;;;;;;;9.68;3.63;;;;;;;;;;4803336;29;20073;-65
2023/05/23 06:11:11;;;;;;;10.68;3.67;;;;;;;;;;4792962;29;20622;-63
2023/05/23 06:13:44;;;;;;;6.20;3.30;;;;;;;;;;4796700;29;20052;-66
2023/05/23 06:16:15;;;;;;;7.72;3.50;;;;;;;;;;4795513;29;20055;-64
2023/05/23 06:18:46;;;;;;;8.35;3.70;;;;;;;;;;4777884;30;20055;-63
2023/05/23 06:21:16;;;;;;;7.10;3.33;;;;;;;;;;4750017;30;20082;-63
2023/05/23 06:23:51;;;;;;;7.70;3.70;;;;;;;;;;4753820;29;20052;-62
2023/05/23 06:26:21;;;;;;;8.57;3.90;;;;;;;;;;4781615;29;20063;-64
2023/05/23 06:28:52;;;;;;;7.35;3.53;;;;;;;;;;4777853;30;20479;-63
2023/05/23 06:31:23;;;;;;;6.75;3.63;;;;;;;;;;4751885;30;20067;-63
2023/05/23 06:33:53;;;;;;;9.52;3.58;;;;;;;;;;4772547;29;20107;-63
2023/05/23 06:36:23;;;;;;;7.13;3.33;;;;;;;;;;4714909;30;20068;-65
2023/05/23 06:38:55;;;;;;;6.32;3.42;;;;;;;;;;4758696;30;20072;-64
2023/05/23 06:41:26;;;;;;;7.50;4.05;;;;;;;;;;4756981;30;20061;-64
2023/05/23 06:43:57;;;;;;;9.35;3.45;;;;;;;;;;4777191;30;20055;-64
2023/05/23 06:46:30;;;;;;;14.57;4.00;;;;;;;;;;4812638;29;20061;-63
2023/05/23 06:49:02;;;;;;;8.25;3.20;;;;;;;;;;4811157;29;20062;-63
2023/05/23 06:51:45;;;;;;;6.93;3.20;;;;;;;;;;4803110;29;20062;-64
2023/05/23 06:54:15;;;;;;;7.40;3.47;;;;;;;;;;4839586;29;20062;-63
2023/05/23 06:56:46;;;;;;;9.95;3.25;;;;;;;;;;4839528;29;20511;-63
2023/05/23 06:59:17;;;;;;;8.50;3.65;;;;;;;;;;4780108;29;20047;-63
2023/05/23 07:01:47;;;;;;;8.57;3.60;;;;;;;;;;4773929;30;20077;-63
2023/05/23 07:04:18;;;;;;;11.88;4.18;;;;;;;;;;4777420;30;20055;-64
2023/05/23 07:06:51;;;;;;;6.75;3.33;;;;;;;;;;4784396;30;20055;-63
2023/05/23 07:09:21;;;;;;;7.93;3.95;;;;;;;;;;4803894;29;20504;-63
2023/05/23 07:11:59;;;;;;;7.82;3.58;;;;;;;;;;4802125;29;20055;-64
2023/05/23 07:14:29;;;;;;;7.97;3.30;;;;;;;;;;4784440;29;20047;-63
2023/05/23 07:17:01;;;;;;;9.55;3.70;;;;;;;;;;4784374;29;20062;-64
2023/05/23 07:19:31;;;;;;;8.02;3.42;;;;;;;;;;4784179;29;20542;-63
2023/05/23 07:22:02;;;;;;;7.75;3.95;;;;;;;;;;4743313;30;20057;-64
2023/05/23 07:24:35;;;;;;;7.22;3.40;;;;;;;;;;4743297;30;20067;-63
2023/05/23 07:27:06;;;;;;;8.35;3.47;;;;;;;;;;4731069;30;20072;-64
2023/05/23 07:29:38;;;;;;;8.05;3.38;;;;;;;;;;4723698;30;20063;-64
2023/05/23 07:32:10;;;;;;;10.07;3.33;;;;;;;;;;4738176;30;20554;-63
2023/05/23 07:34:41;;;;;;;8.55;3.75;;;;;;;;;;4731264;30;20061;-63
2023/05/23 07:37:12;;;;;;;7.20;3.42;;;;;;;;;;4755850;30;20064;-63
2023/05/23 07:39:44;;;;;;;;;;;;;;;;;;4762521;29;20055;-64
2023/05/23 07:42:16;;;;;;;9.20;3.63;;;;;;;;;;4765936;30;20330;-64
2023/05/23 07:44:46;;;;;;;7.88;3.67;;;;;;;;;;4765955;29;20055;-63
2023/05/23 07:47:17;;;;;;;10.13;3.40;;;;;;;;;;4773278;29;20073;-63
2023/05/23 07:49:47;;;;;;;6.93;3.25;;;;;;;;;;4778568;29;20167;-63
2023/05/23 07:52:18;;;;;;;8.27;3.30;;;;;;;;;;4810035;29;20066;-63
2023/05/23 07:54:48;;;;;;;9.15;3.47;;;;;;;;;;4759047;30;20056;-63
2023/05/23 07:57:18;;;;;;;10.45;3.60;;;;;;;;;;4746910;30;20069;-63
2023/05/23 07:59:52;;;;;;;8.98;3.58;;;;;;;;;;4755614;30;20059;-64
2023/05/23 08:02:23;;;;;;;;;;;;;;;;;;4782080;29;20064;-63
2023/05/23 08:04:55;;;;;;;12.43;3.95;;;;;;;;;;4764594;29;19927;-64
2023/05/23 08:07:26;;;;;;;11.90;3.95;;;;;;;;;;4778856;29;20498;-62
2023/05/23 08:10:00;;;;;;;9.68;4.13;;;;;;;;;;4789684;29;20117;-64
2023/05/23 08:12:31;;;;;;;7.55;3.65;;;;;;;;;;4816171;29;20508;-65
2023/05/23 08:15:09;;;;;;;8.38;3.78;;;;;;;;;;4808803;29;20555;-63
2023/05/23 08:17:46;;;;;;;10.30;3.80;;;;;;;;;;4784960;29;20501;-62
2023/05/23 08:20:18;;;;;;;10.00;3.85;;;;;;;;;;4830341;29;20062;-63
2023/05/23 08:22:48;;;;;;;9.00;3.90;;;;;;;;;;4796583;29;20360;-63
2023/05/23 08:25:18;;;;;;;11.23;3.60;;;;;;;;;;4795634;29;20052;-63
2023/05/23 08:27:50;;;;;;;11.60;3.80;;;;;;;;;;4816015;29;20069;-64
2023/05/23 08:30:38;;;;;;;8.15;3.55;;;;;;;;;;4847179;29;20056;-66
2023/05/23 08:33:10;;;;;;;10.27;3.80;;;;;;;;;;4823423;29;20439;-63
2023/05/23 08:35:44;;;;;;;12.40;3.60;;;;;;;;;;4812508;29;20051;-63
2023/05/23 08:38:17;;;;;;;8.18;3.65;;;;;;;;;;4805498;29;20064;-64
2023/05/23 08:41:01;;;;;;;7.45;3.78;;;;;;;;;;4803424;29;20059;-63
2023/05/23 08:43:32;;;;;;;7.90;3.33;;;;;;;;;;4787575;29;20059;-63
2023/05/23 08:46:03;;;;;;;8.70;3.58;;;;;;;;;;4785637;29;20061;-63
2023/05/23 08:48:38;;;;;;;7.65;3.33;;;;;;;;;;4846754;29;20054;-63
2023/05/23 08:51:14;;;;;;;9.70;4.28;;;;;;;;;;4823804;29;20058;-63
2023/05/23 08:53:48;;;;;;;7.53;3.88;;;;;;;;;;4855881;29;20410;-63
2023/05/23 08:56:27;;;;;;;7.05;3.15;;;;;;;;;;4889097;29;20135;-63
2023/05/23 08:58:58;;;;;;;7.35;4.25;;;;;;;;;;4842249;29;20054;-64
2023/05/23 09:01:29;;;;;;;9.27;3.72;;;;;;;;;;4781135;29;20056;-64
2023/05/23 09:04:05;;;;;;;6.93;3.30;;;;;;;;;;4791358;29;20060;-64
2023/05/23 09:06:59;;;;;;;8.23;3.45;;;;;;;;;;4783567;30;20063;-63
2023/05/23 09:09:30;;;;;;;9.60;3.20;;;;;;;;;;4800831;29;20054;-63
2023/05/23 09:12:04;;;;;;;7.50;3.30;;;;;;;;;;4765602;29;20112;-64
2023/05/23 09:14:36;;;;;;;8.55;3.10;;;;;;;;;;4801054;29;20055;-65
2023/05/23 09:17:08;;;;;;;12.23;3.92;;;;;;;;;;4837194;29;20065;-63
2023/05/23 09:19:41;;;;;;;13.75;3.65;;;;;;;;;;4792239;29;20058;-65
2023/05/23 09:22:30;;;;;;;5.93;3.40;;;;;;;;;;4837143;29;20062;-65
2023/05/23 09:25:09;;;;;;;10.00;3.47;;;;;;;;;;4799698;29;20480;-63
2023/05/23 09:27:42;;;;;;;13.85;3.88;;;;;;;;;;4799400;29;20055;-63
2023/05/23 09:30:17;;;;;;;7.47;3.20;;;;;;;;;;4800449;29;20062;-63
2023/05/23 09:32:59;;;;;;;7.68;3.60;;;;;;;;;;4765128;30;20056;-64
2023/05/23 09:35:34;;;;;;;6.70;3.33;;;;;;;;;;4802649;29;20504;-64
2023/05/23 09:38:07;;;;;;;8.45;3.47;;;;;;;;;;4804036;29;20054;-63
2023/05/23 09:40:45;;;;;;;9.93;3.90;;;;;;;;;;4820141;29;20538;-66
2023/05/23 09:43:17;;;;;;;9.68;3.88;;;;;;;;;;4767504;30;20513;-64
2023/05/23 09:45:54;;;;;;;9.02;3.97;;;;;;;;;;4782297;30;20059;-64
2023/05/23 09:48:31;;;;;;;12.02;3.45;;;;;;;;;;4735607;30;20506;-63
2023/05/23 09:51:09;;;;;;;16.45;4.43;;;;;;;;;;4767911;30;20052;-63
2023/05/23 09:53:40;;;;;;;11.23;3.85;;;;;;;;;;4758928;30;20410;-64
2023/05/23 09:56:11;;;;;;;9.88;4.00;;;;;;;;;;4725194;30;20069;-63
2023/05/23 09:58:45;;;;;;;9.20;3.83;;;;;;;;;;4773224;30;20642;-62
2023/05/23 10:01:18;;;;;;;7.97;4.00;;;;;;;;;;4742466;30;20057;-64
2023/05/23 10:03:56;;;;;;;12.10;4.57;;;;;;;;;;4715207;30;20535;-63
2023/05/23 10:06:39;;;;;;;10.18;4.28;;;;;;;;;;4762561;30;20523;-62
2023/05/23 10:09:16;;;;;;;11.85;4.40;;;;;;;;;;4755895;30;20196;-63
2023/05/23 10:12:12;;;;;;;9.15;4.25;;;;;;;;;;4792180;29;20063;-63
2023/05/23 10:14:47;;;;;;;12.00;4.38;;;;;;;;;;4803968;29;20070;-64
2023/05/23 10:17:32;;;;;;;9.55;3.90;;;;;;;;;;4803869;29;20055;-61
2023/05/23 10:20:07;;;;;;;10.05;4.53;;;;;;;;;;4803750;29;20070;-61
2023/05/23 10:22:40;;;;;;;11.32;4.00;;;;;;;;;;4821222;29;20452;-61
2023/05/23 10:25:12;;;;;;;11.25;4.20;;;;;;;;;;4826314;29;20050;-61
2023/05/23 10:27:43;;;;;;;11.43;4.80;;;;;;;;;;4858809;29;20064;-61
2023/05/23 10:30:13;;;;;;;8.60;4.05;;;;;;;;;;4855355;29;20058;-62
2023/05/23 10:32:45;;;;;;;10.60;4.18;;;;;;;;;;4842786;29;20061;-61
2023/05/23 10:35:30;;;;;;;12.18;4.88;;;;;;;;;;4858446;29;20054;-62
2023/05/23 10:38:27;;;;;;;10.63;4.32;;;;;;;;;;4827521;29;20064;-63
2023/05/23 10:41:04;;;;;;;9.98;3.63;;;;;;;;;;4842455;29;20058;-62
2023/05/23 10:44:15;;;;;;;9.43;4.55;;;;;;;;;;4858244;29;20061;-62
2023/05/23 10:47:01;;;;;;;12.35;5.10;;;;;;;;;;4856942;29;20711;-62
2023/05/23 10:49:41;;;;;;;9.63;4.25;;;;;;;;;;4858217;29;20073;-64
2023/05/23 10:52:13;;;;;;;10.00;4.82;;;;;;;;;;4871328;29;20064;-62
2023/05/23 10:54:45;;;;;;;11.35;5.10;;;;;;;;;;4893111;29;20417;-62
2023/05/23 10:57:26;;;;;;;11.02;4.88;;;;;;;;;;4864530;29;20135;-62
2023/05/23 10:59:56;;;;;;;13.50;5.18;;;;;;;;;;4879932;29;20060;-63
2023/05/23 11:02:28;;;;;;;13.93;5.35;;;;;;;;;;4888623;29;20783;-62
2023/05/23 11:05:26;;;;;;;11.88;5.85;;;;;;;;;;4891829;29;20534;-61
2023/05/23 11:08:12;;;;;;;13.77;6.22;;;;;;;;;;4896328;29;20420;-62
2023/05/23 11:10:59;;;;;;;14.30;7.40;;;;;;;;;;4913710;29;20344;-62
2023/05/23 11:13:54;;;;;;;15.77;6.72;;;;;;;;;;4914201;29;20057;-62
2023/05/23 11:16:27;;;;;;;17.83;7.05;;;;;;;;;;4898090;29;20413;-63
2023/05/23 11:19:17;;;;;;;14.10;6.65;;;;;;;;;;4897514;29;20052;-62
2023/05/23 11:22:00;;;;;;;14.55;6.57;;;;;;;;;;4897706;29;20499;-63
2023/05/23 11:24:52;;;;;;;10.43;5.65;;;;;;;;;;4917803;29;20047;-63
2023/05/23 11:27:37;;;;;;;12.50;6.00;;;;;;;;;;4885310;29;20940;-64
2023/05/23 11:30:13;;;;;;;18.00;6.28;;;;;;;;;;4913418;29;20059;-64
2023/05/23 11:32:54;;;;;;;13.68;6.05;;;;;;;;;;4913539;29;20060;-63
2023/05/23 11:35:25;;;;;;;12.07;5.85;;;;;;;;;;4912902;29;20060;-63
2023/05/23 11:37:56;;;;;;;11.93;5.53;;;;;;;;;;4910873;29;20087;-63
2023/05/23 11:40:34;;;;;;;14.02;6.22;;;;;;;;;;4913372;29;20409;-63
2023/05/23 11:43:07;;;;;;;10.88;5.35;;;;;;;;;;4897362;29;20070;-63
2023/05/23 11:45:38;;;;;;;13.90;6.03;;;;;;;;;;4910469;29;20104;-66
2023/05/23 11:48:13;;;;;;;13.27;6.20;;;;;;;;;;4912617;29;20520;-64
2023/05/23 11:50:45;;;;;;;12.23;5.60;;;;;;;;;;4897256;29;20484;-64
2023/05/23 11:53:19;;;;;;;16.20;6.65;;;;;;;;;;4936468;28;20073;-63
2023/05/23 11:55:55;;;;;;;12.18;5.75;;;;;;;;;;4989063;28;20051;-64
2023/05/23 11:58:37;;;;;;;12.57;5.68;;;;;;;;;;4897023;28;20387;-64
2023/05/23 12:01:09;;;;;;;12.13;6.15;;;;;;;;;;4924046;29;20070;-63
2023/05/23 12:03:48;;;;;;;;;;;;;;;;;;4935176;29;20535;-63
2023/05/23 12:06:20;;;;;;;10.75;5.63;;;;;;;;;;4910082;29;19922;-63
2023/05/23 12:08:53;;;;;;;14.25;6.95;;;;;;;;;;4902113;29;20059;-63
2023/05/23 12:11:25;;;;;;;13.35;6.47;;;;;;;;;;4905700;28;20372;-63
2023/05/23 12:13:55;;;;;;;11.13;5.50;;;;;;;;;;4930558;29;20051;-63
2023/05/23 12:16:27;;;;;;;10.90;5.70;;;;;;;;;;4947973;29;20066;-64
2023/05/23 12:18:58;;;;;;;11.13;5.55;;;;;;;;;;4914188;29;20052;-63
2023/05/23 12:21:48;;;;;;;9.45;5.22;;;;;;;;;;4899638;29;20059;-64
2023/05/23 12:24:22;;;;;;;10.48;5.63;;;;;;;;;;4907508;29;20063;-63
2023/05/23 12:26:59;;;;;;;15.45;6.25;;;;;;;;;;4925821;29;20056;-64
2023/05/23 12:29:31;;;;;;;15.80;8.93;;;;;;;;;;4931437;29;20459;-63
2023/05/23 12:32:04;;;;;;;11.77;6.75;;;;;;;;;;4907492;29;20233;-63
2023/05/23 12:34:40;;;;;;;14.98;7.93;;;;;;;;;;4950976;29;20055;-64
2023/05/23 12:37:13;;;;;;;15.18;6.78;;;;;;;;;;4894448;29;20051;-63
2023/05/23 12:39:48;;;;;;;12.63;6.85;;;;;;;;;;4916111;29;20063;-64
2023/05/23 12:42:18;;;;;;;13.00;7.15;;;;;;;;;;4915168;29;20055;-63
2023/05/23 12:44:53;;;;;;;13.35;7.07;;;;;;;;;;4928851;29;20066;-63
2023/05/23 12:47:23;;;;;;;15.27;7.35;;;;;;;;;;4931838;29;20055;-62
2023/05/23 12:49:53;;;;;;;15.90;7.05;;;;;;;;;;4911632;29;20060;-63
2023/05/23 12:52:23;;;;;;;17.60;7.13;;;;;;;;;;4928505;29;20063;-63
2023/05/23 12:54:54;;;;;;;16.00;7.07;;;;;;;;;;4916003;29;20060;-62
2023/05/23 12:57:24;;;;;;;21.67;7.70;;;;;;;;;;4915811;29;20058;-62
2023/05/23 12:59:55;;;;;;;15.70;6.57;;;;;;;;;;4902918;28;20059;-63
2023/05/23 13:02:27;;;;;;;14.10;6.60;;;;;;;;;;4950692;28;20062;-63
2023/05/23 13:04:57;;;;;;;14.80;6.40;;;;;;;;;;4950030;28;20534;-63
2023/05/23 13:07:28;;;;;;;14.60;6.70;;;;;;;;;;4950444;28;20474;-62
2023/05/23 13:09:58;;;;;;;12.52;5.90;;;;;;;;;;4950486;28;20070;-63
2023/05/23 13:12:29;;;;;;;12.15;5.97;;;;;;;;;;4945442;28;20153;-63
2023/05/23 13:14:59;;;;;;;16.80;6.47;;;;;;;;;;4918784;29;20064;-62
2023/05/23 13:17:30;;;;;;;15.98;5.80;;;;;;;;;;4852605;29;20080;-62
2023/05/23 13:20:00;;;;;;;10.98;5.57;;;;;;;;;;4915596;29;20195;-63
2023/05/23 13:22:31;;;;;;;11.68;4.97;;;;;;;;;;4865657;29;20119;-63
2023/05/23 13:25:01;;;;;;;14.02;5.45;;;;;;;;;;4880847;29;20048;-63
2023/05/23 13:27:32;;;;;;;14.07;5.97;;;;;;;;;;4868770;29;20048;-63
2023/05/23 13:30:02;;;;;;;13.70;5.00;;;;;;;;;;4918344;29;20579;-63
2023/05/23 13:32:34;;;;;;;12.30;5.82;;;;;;;;;;4934349;29;20083;-63
2023/05/23 13:35:05;;;;;;;10.48;4.93;;;;;;;;;;4902826;29;20533;-63
2023/05/23 13:37:35;;;;;;;9.02;5.00;;;;;;;;;;4907164;28;20598;-63
2023/05/23 13:40:06;;;;;;;12.73;5.07;;;;;;;;;;4956803;28;20054;-63
2023/05/23 13:42:37;;;;;;;11.45;4.18;;;;;;;;;;4972757;28;20051;-63
2023/05/23 13:45:08;;;;;;;9.38;4.18;;;;;;;;;;4940223;28;20054;-63
2023/05/23 13:47:38;;;;;;;8.73;3.38;;;;;;;;;;4948726;28;20051;-64
2023/05/23 13:50:09;;;;;;;7.30;4.13;;;;;;;;;;4962310;28;20047;-62
2023/05/23 13:52:40;;;;;;;8.45;3.05;;;;;;;;;;4969703;28;20407;-63
2023/05/23 13:55:13;;;;;;;9.70;3.55;;;;;;;;;;4993343;28;20066;-63
2023/05/23 13:57:44;;;;;;;6.55;3.00;;;;;;;;;;4984184;28;20054;-63
2023/05/23 14:00:15;;;;;;;9.85;3.60;;;;;;;;;;4990127;28;20056;-64
2023/05/23 14:02:45;;;;;;;6.32;3.13;;;;;;;;;;5033737;28;20389;-63
2023/05/23 14:05:18;;;;;;;7.65;3.05;;;;;;;;;;5028354;28;20041;-63
2023/05/23 14:07:48;;;;;;;9.13;3.42;;;;;;;;;;4988626;28;20045;-63
2023/05/23 14:10:18;;;;;;;8.80;3.45;;;;;;;;;;5022072;28;20387;-63
2023/05/23 14:12:49;;;;;;;7.80;3.40;;;;;;;;;;5014073;28;20042;-63
2023/05/23 14:15:20;;;;;;;31.50;14.48;;;;;;;;;;4980072;28;20061;-63
2023/05/23 14:17:54;;;;;;;8.35;3.90;;;;;;;;;;4996028;28;20480;-63
2023/05/23 14:20:24;;;;;;;15.02;7.70;;;;;;;;;;5014720;28;20049;-63
2023/05/23 14:22:54;;;;;;;7.55;3.00;;;;;;;;;;4997172;28;20516;-62
2023/05/23 14:25:25;;;;;;;13.68;3.95;;;;;;;;;;5011151;28;20049;-63
2023/05/23 14:27:55;;;;;;;8.68;3.90;;;;;;;;;;5017563;28;20053;-63
2023/05/23 14:30:25;;;;;;;13.57;3.78;;;;;;;;;;5016230;28;20042;-63
2023/05/23 14:32:56;;;;;;;7.72;3.15;;;;;;;;;;5033384;28;20053;-63
2023/05/23 14:35:28;;;;;;;9.88;3.60;;;;;;;;;;5016112;28;20068;-63
2023/05/23 14:37:58;;;;;;;7.28;3.47;;;;;;;;;;5033285;28;20045;-63
2023/05/23 14:40:28;;;;;;;6.35;2.85;;;;;;;;;;5033079;28;20061;-63
2023/05/23 14:42:59;;;;;;;7.13;2.70;;;;;;;;;;5033015;28;20481;-63
2023/05/23 14:45:30;;;;;;;7.50;2.80;;;;;;;;;;4998297;28;20049;-63
2023/05/23 14:48:01;;;;;;;9.82;3.03;;;;;;;;;;5020949;28;20073;-64
2023/05/23 14:50:31;;;;;;;11.65;2.95;;;;;;;;;;5030420;28;20045;-63
2023/05/23 14:53:01;;;;;;;6.60;2.95;;;;;;;;;;4997509;28;20080;-63
2023/05/23 14:55:32;;;;;;;7.38;3.50;;;;;;;;;;5032727;28;20061;-63
2023/05/23 14:58:04;;;;;;;6.57;3.45;;;;;;;;;;4998283;28;20068;-63
2023/05/23 15:00:34;;;;;;;9.95;3.92;;;;;;;;;;4993522;28;20506;-63
2023/05/23 15:03:04;;;;;;;8.40;3.53;;;;;;;;;;4978058;28;20046;-63
2023/05/23 15:05:35;;;;;;;5.97;2.78;;;;;;;;;;4981288;28;20053;-63
2023/05/23 15:08:05;;;;;;;6.60;3.03;;;;;;;;;;5012582;28;20050;-64
2023/05/23 15:10:36;;;;;;;6.22;3.00;;;;;;;;;;5012301;28;20062;-63
2023/05/23 15:13:06;;;;;;;6.57;3.00;;;;;;;;;;4978009;28;20069;-64
2023/05/23 15:15:37;;;;;;;7.63;3.20;;;;;;;;;;5012702;28;20050;-64
2023/05/23 15:18:10;;;;;;;7.18;3.53;;;;;;;;;;4977900;28;20050;-64